createdAt,value
2023-02-01T00:01:28.249Z,99434.13
2023-02-01T00:03:56.636Z,99437.22
2023-02-01T00:06:25.130Z,99437.97
2023-02-01T00:08:57.062Z,99446.59
2023-02-01T00:11:26.301Z,99439.09
2023-02-01T00:13:55.686Z,99449.69
2023-02-01T00:16:27.857Z,99450.00
2023-02-01T00:19:00.582Z,99458.19
2023-02-01T00:21:29.473Z,99460.81
2023-02-01T00:23:58.359Z,99465.47
2023-02-01T00:26:39.391Z,99459.06
2023-02-01T00:29:13.027Z,99466.03
2023-02-01T00:31:42.201Z,99476.09
2023-02-01T00:34:14.091Z,99477.19
2023-02-01T00:36:43.428Z,99480.50
2023-02-01T00:39:12.771Z,99487.44
2023-02-01T00:41:42.250Z,99486.88
2023-02-01T00:44:10.716Z,99491.44
2023-02-01T00:46:39.485Z,99494.41
2023-02-01T00:49:09.281Z,99494.19
2023-02-01T00:51:37.707Z,99495.19
2023-02-01T00:54:06.269Z,99492.69
2023-02-01T00:56:34.593Z,99495.19
2023-02-01T00:59:02.938Z,99499.72
2023-02-01T01:01:31.324Z,99500.69
2023-02-01T01:04:01.780Z,99501.25
2023-02-01T01:06:33.219Z,99510.84
2023-02-01T01:09:05.016Z,99520.09
2023-02-01T01:11:37.084Z,99519.84
2023-02-01T01:14:06.583Z,99523.94
2023-02-01T01:16:35.619Z,99526.47
2023-02-01T01:19:04.914Z,99528.53
2023-02-01T01:21:33.284Z,99528.31
2023-02-01T01:24:01.968Z,99535.91
2023-02-01T01:26:31.886Z,99529.66
2023-02-01T01:29:05.747Z,99540.03
2023-02-01T01:31:34.814Z,99538.91
2023-02-01T01:34:03.398Z,99543.25
2023-02-01T01:36:32.113Z,99548.44
2023-02-01T01:39:00.735Z,99550.78
2023-02-01T01:41:32.932Z,99550.38
2023-02-01T01:44:05.071Z,99559.06
2023-02-01T01:46:42.687Z,99558.66
2023-02-01T01:49:22.731Z,99558.25
2023-02-01T01:51:58.105Z,99561.38
2023-02-01T01:54:39.955Z,99559.72
2023-02-01T01:57:31.153Z,99569.94
2023-02-01T02:00:10.651Z,99568.59
2023-02-01T02:02:41.069Z,99564.94
2023-02-01T02:05:10.877Z,99562.47
2023-02-01T02:07:42.326Z,99571.59
2023-02-01T02:10:13.299Z,99574.22
2023-02-01T02:12:44.169Z,99591.63
2023-02-01T02:15:15.896Z,99585.22
2023-02-01T02:17:53.043Z,99588.59
2023-02-01T02:20:50.593Z,99589.97
2023-02-01T02:23:50.916Z,99586.84
2023-02-01T02:26:36.036Z,99593.47
2023-02-01T02:29:37.856Z,99595.59
2023-02-01T02:32:26.543Z,99592.66
2023-02-01T02:35:15.807Z,99593.69
2023-02-01T02:38:10.429Z,99597.53
2023-02-01T02:40:47.906Z,99601.81
2023-02-01T02:43:52.912Z,99597.72
2023-02-01T02:46:51.021Z,99597.03
2023-02-01T02:49:23.108Z,99597.56
2023-02-01T02:52:41.763Z,99598.31
2023-02-01T02:55:11.724Z,99601.94
2023-02-01T02:58:02.767Z,99594.59
2023-02-01T03:00:52.987Z,99597.41
2023-02-01T03:03:39.933Z,99599.47
2023-02-01T03:06:18.021Z,99601.47
2023-02-01T03:08:47.317Z,99597.66
2023-02-01T03:11:18.007Z,99591.06
2023-02-01T03:14:02.712Z,99591.06
2023-02-01T03:16:39.307Z,99590.75
2023-02-01T03:19:11.558Z,99587.88
2023-02-01T03:22:10.685Z,99578.41
2023-02-01T03:24:47.789Z,99576.88
2023-02-01T03:27:16.110Z,99570.66
2023-02-01T03:29:58.805Z,99567.28
2023-02-01T03:32:27.687Z,99565.41
2023-02-01T03:34:56.912Z,99564.78
2023-02-01T03:37:30.648Z,99560.59
2023-02-01T03:40:13.736Z,99563.53
2023-02-01T03:42:50.428Z,99555.53
2023-02-01T03:45:46.310Z,99557.69
2023-02-01T03:48:17.374Z,99556.78
2023-02-01T03:50:53.780Z,99552.56
2023-02-01T03:53:25.585Z,99539.97
2023-02-01T03:55:56.165Z,99536.78
2023-02-01T03:58:25.349Z,99529.75
2023-02-01T04:00:59.451Z,99528.03
2023-02-01T04:03:29.466Z,99525.81
2023-02-01T04:05:57.940Z,99520.06
2023-02-01T04:08:29.607Z,99521.66
2023-02-01T04:10:58.122Z,99523.00
2023-02-01T04:13:26.496Z,99526.88
2023-02-01T04:15:54.819Z,99515.47
2023-02-01T04:18:23.141Z,99520.06
2023-02-01T04:20:51.446Z,99502.31
2023-02-01T04:23:19.847Z,99513.28
2023-02-01T04:25:48.484Z,99495.03
2023-02-01T04:28:16.799Z,99497.09
2023-02-01T04:30:45.196Z,99492.78
2023-02-01T04:33:15.865Z,99491.31
2023-02-01T04:35:44.254Z,99478.31
2023-02-01T04:38:13.264Z,99468.13
2023-02-01T04:40:41.592Z,99469.16
2023-02-01T04:43:10.094Z,99465.88
2023-02-01T04:45:38.416Z,99460.00
2023-02-01T04:48:07.102Z,99464.63
2023-02-01T04:50:35.464Z,99445.47
2023-02-01T04:53:03.844Z,99447.22
2023-02-01T04:55:32.681Z,99441.09
2023-02-01T04:58:01.028Z,99436.25
2023-02-01T05:00:29.420Z,99433.66
2023-02-01T05:02:58.045Z,99432.41
2023-02-01T05:05:26.659Z,99421.91
2023-02-01T05:07:55.476Z,99421.91
2023-02-01T05:10:24.278Z,99409.63
2023-02-01T05:13:11.645Z,99404.75
2023-02-01T05:15:40.018Z,99402.41
2023-02-01T05:18:08.438Z,99388.31
2023-02-01T05:20:37.360Z,99386.19
2023-02-01T05:23:05.780Z,99377.47
2023-02-01T05:25:34.116Z,99371.06
2023-02-01T05:28:02.489Z,99360.78
2023-02-01T05:30:31.519Z,99356.38
2023-02-01T05:32:59.929Z,99345.88
2023-02-01T05:35:28.412Z,99340.75
2023-02-01T05:37:56.769Z,99326.63
2023-02-01T05:40:25.332Z,99315.56
2023-02-01T05:42:53.933Z,99316.53
2023-02-01T05:45:22.238Z,99308.78
2023-02-01T05:47:50.572Z,99300.28
2023-02-01T05:50:19.338Z,99295.94
2023-02-01T05:52:47.679Z,99287.41
2023-02-01T05:55:16.102Z,99276.63
2023-02-01T05:57:44.449Z,99276.59
2023-02-01T06:00:13.385Z,99272.19
2023-02-01T06:02:42.642Z,99265.50
2023-02-01T06:05:11.188Z,99264.44
2023-02-01T06:07:39.525Z,99258.50
2023-02-01T06:10:08.787Z,99253.56
2023-02-01T06:12:37.279Z,99247.34
2023-02-01T06:15:06.204Z,99250.31
2023-02-01T06:17:34.548Z,99241.25
2023-02-01T06:20:02.841Z,99241.94
2023-02-01T06:22:31.196Z,99236.03
2023-02-01T06:25:00.799Z,99231.84
2023-02-01T06:27:29.144Z,99221.03
2023-02-01T06:29:57.995Z,99217.91
2023-02-01T06:32:26.624Z,99206.84
2023-02-01T06:34:54.991Z,99197.56
2023-02-01T06:37:23.477Z,99197.00
2023-02-01T06:39:51.797Z,99186.50
2023-02-01T06:42:20.105Z,99181.84
2023-02-01T06:44:48.550Z,99169.75
2023-02-01T06:47:16.844Z,99176.06
2023-02-01T06:49:45.303Z,99165.78
2023-02-01T06:52:13.615Z,99161.88
2023-02-01T06:54:42.065Z,99153.41
2023-02-01T06:57:13.797Z,99147.78
2023-02-01T06:59:42.082Z,99138.56
2023-02-01T07:02:17.882Z,99142.91
2023-02-01T07:04:46.266Z,99132.41
2023-02-01T07:07:15.049Z,99129.03
2023-02-01T07:09:43.482Z,99123.09
2023-02-01T07:12:11.770Z,99116.91
2023-02-01T07:14:40.066Z,99119.44
2023-02-01T07:17:08.383Z,99105.81
2023-02-01T07:19:37.251Z,99104.72
2023-02-01T07:22:05.561Z,99104.19
2023-02-01T07:24:33.907Z,99100.47
2023-02-01T07:27:02.241Z,99096.59
2023-02-01T07:29:30.544Z,99089.84
2023-02-01T07:31:58.888Z,99095.38
2023-02-01T07:34:27.293Z,99080.22
2023-02-01T07:36:55.566Z,99082.28
2023-02-01T07:39:23.925Z,99079.75
2023-02-01T07:41:52.203Z,99080.84
2023-02-01T07:44:24.599Z,99073.72
2023-02-01T07:46:53.209Z,99068.94
2023-02-01T07:49:21.513Z,99066.66
2023-02-01T07:51:49.974Z,99065.69
2023-02-01T07:54:18.387Z,99061.69
2023-02-01T07:56:46.795Z,99057.97
2023-02-01T07:59:15.402Z,99054.84
2023-02-01T08:01:43.968Z,99056.47
2023-02-01T08:04:16.077Z,99050.94
2023-02-01T08:06:44.439Z,99049.50
2023-02-01T08:09:13.389Z,99048.53
2023-02-01T08:11:41.734Z,99042.69
2023-02-01T08:14:10.060Z,99041.91
2023-02-01T08:16:39.654Z,99043.22
2023-02-01T08:19:08.023Z,99029.13
2023-02-01T08:21:39.157Z,99031.41
2023-02-01T08:24:08.686Z,99030.66
2023-02-01T08:26:37.113Z,99031.63
2023-02-01T08:29:08.582Z,99037.47
2023-02-01T08:31:36.935Z,99033.06
2023-02-01T08:34:10.237Z,99033.28
2023-02-01T08:36:40.118Z,99028.63
2023-02-01T08:39:10.925Z,99032.75
2023-02-01T08:41:39.777Z,99033.28
2023-02-01T08:44:08.187Z,99035.13
2023-02-01T08:46:36.603Z,99026.97
2023-02-01T08:49:04.969Z,99032.94
2023-02-01T08:51:33.284Z,99027.84
2023-02-01T08:54:02.864Z,99031.97
2023-02-01T08:56:31.202Z,99032.94
2023-02-01T08:58:59.523Z,99031.34
2023-02-01T09:01:27.923Z,99024.63
2023-02-01T09:03:56.421Z,99036.09
2023-02-01T09:06:25.006Z,99032.75
2023-02-01T09:08:53.306Z,99041.19
2023-02-01T09:11:21.621Z,99038.91
2023-02-01T09:13:50.854Z,99031.75
2023-02-01T09:16:20.378Z,99038.69
2023-02-01T09:18:56.442Z,99034.91
2023-02-01T09:21:31.067Z,99043.09
2023-02-01T09:23:59.715Z,99040.84
2023-02-01T09:26:32.916Z,99047.00
2023-02-01T09:29:02.659Z,99042.91
2023-02-01T09:31:31.449Z,99040.06
2023-02-01T09:33:59.972Z,99041.38
2023-02-01T09:36:30.180Z,99039.66
2023-02-01T09:38:59.996Z,99039.97
2023-02-01T09:41:57.164Z,99041.06
2023-02-01T09:44:29.932Z,99041.16
2023-02-01T09:47:01.793Z,99037.16
2023-02-01T09:49:34.306Z,99032.34
2023-02-01T09:52:09.100Z,99039.56
2023-02-01T09:54:56.000Z,99038.38
2023-02-01T09:58:00.709Z,99043.88
2023-02-01T10:00:35.970Z,99043.22
2023-02-01T10:03:04.764Z,99051.19
2023-02-01T10:05:51.637Z,99053.34
2023-02-01T10:08:32.873Z,99053.44
2023-02-01T10:11:29.544Z,99054.84
2023-02-01T10:14:16.145Z,99056.75
2023-02-01T10:16:53.611Z,99055.84
2023-02-01T10:19:56.625Z,99062.03
2023-02-01T10:23:13.420Z,99060.38
2023-02-01T10:25:54.513Z,99067.91
2023-02-01T10:28:25.972Z,99064.94
2023-02-01T10:30:59.660Z,99063.50
2023-02-01T10:33:54.662Z,99072.53
2023-02-01T10:36:42.582Z,99075.94
2023-02-01T10:39:15.561Z,99073.72
2023-02-01T10:41:47.989Z,99082.00
2023-02-01T10:44:25.067Z,99088.69
2023-02-01T10:46:53.852Z,99084.19
2023-02-01T10:49:43.213Z,99091.69
2023-02-01T10:52:40.506Z,99086.16
2023-02-01T10:55:30.388Z,99095.69
2023-02-01T10:58:04.705Z,99093.00
2023-02-01T11:01:05.634Z,99092.31
2023-02-01T11:03:39.637Z,99098.00
2023-02-01T11:06:32.172Z,99100.38
2023-02-01T11:09:14.917Z,99089.22
2023-02-01T11:11:49.277Z,99091.09
2023-02-01T11:14:20.798Z,99105.41
2023-02-01T11:16:56.996Z,99102.91
2023-02-01T11:19:25.717Z,99104.75
2023-02-01T11:21:56.106Z,99111.13
2023-02-01T11:24:36.807Z,99114.78
2023-02-01T11:27:10.382Z,99116.59
2023-02-01T11:29:45.439Z,99128.06
2023-02-01T11:32:17.641Z,99124.81
2023-02-01T11:34:57.525Z,99122.81
2023-02-01T11:37:39.083Z,99122.06
2023-02-01T11:40:31.044Z,99125.38
2023-02-01T11:43:10.663Z,99134.28
2023-02-01T11:45:41.575Z,99138.66
2023-02-01T11:48:26.883Z,99141.47
2023-02-01T11:51:32.928Z,99138.41
2023-02-01T11:54:41.301Z,99136.13
2023-02-01T11:57:39.687Z,99151.06
2023-02-01T12:00:35.692Z,99155.63
2023-02-01T12:03:32.416Z,99154.59
2023-02-01T12:06:32.099Z,99160.91
2023-02-01T12:09:30.623Z,99158.09
2023-02-01T12:12:19.286Z,99160.84
2023-02-01T12:15:39.021Z,99169.44
2023-02-01T12:18:42.039Z,99168.41
2023-02-01T12:21:22.059Z,99189.69
2023-02-01T12:24:27.515Z,99189.88
2023-02-01T12:27:48.875Z,99198.97
2023-02-01T12:30:35.638Z,99199.44
2023-02-01T12:33:13.007Z,99204.19
2023-02-01T12:35:56.825Z,99201.09
2023-02-01T12:39:02.753Z,99202.06
2023-02-01T12:42:03.345Z,99206.09
2023-02-01T12:44:44.643Z,99211.59
2023-02-01T12:47:31.398Z,99223.00
2023-02-01T12:50:09.663Z,99232.59
2023-02-01T12:52:50.321Z,99233.28
2023-02-01T12:55:27.531Z,99237.56
2023-02-01T12:58:09.320Z,99235.94
2023-02-01T13:00:53.589Z,99247.06
2023-02-01T13:03:38.701Z,99249.03
2023-02-01T13:06:35.210Z,99251.50
2023-02-01T13:09:29.418Z,99255.19
2023-02-01T13:12:03.314Z,99269.56
2023-02-01T13:14:40.380Z,99270.00
2023-02-01T13:17:16.349Z,99269.16
2023-02-01T13:20:12.499Z,99278.69
2023-02-01T13:22:47.960Z,99284.22
2023-02-01T13:25:49.077Z,99279.81
2023-02-01T13:28:46.902Z,99288.84
2023-02-01T13:31:50.871Z,99292.63
2023-02-01T13:34:51.469Z,99296.84
2023-02-01T13:37:58.414Z,99299.84
2023-02-01T13:41:09.047Z,99298.22
2023-02-01T13:43:40.849Z,99306.78
2023-02-01T13:46:16.560Z,99306.22
2023-02-01T13:48:56.186Z,99307.22
2023-02-01T13:51:46.050Z,99315.28
2023-02-01T13:54:33.736Z,99317.03
2023-02-01T13:57:04.909Z,99315.94
2023-02-01T13:59:42.576Z,99309.31
2023-02-01T14:02:44.722Z,99322.97
2023-02-01T14:05:36.305Z,99323.66
2023-02-01T14:08:11.474Z,99325.88
2023-02-01T14:11:02.419Z,99330.38
2023-02-01T14:13:40.844Z,99328.56
2023-02-01T14:16:10.118Z,99334.63
2023-02-01T14:18:39.063Z,99338.38
2023-02-01T14:21:39.262Z,99339.31
2023-02-01T14:24:26.787Z,99344.31
2023-02-01T14:26:59.968Z,99340.97
2023-02-01T14:29:34.317Z,99337.59
2023-02-01T14:32:05.918Z,99335.47
2023-02-01T14:34:39.668Z,99328.09
2023-02-01T14:37:13.352Z,99339.69
2023-02-01T14:40:14.917Z,99345.44
2023-02-01T14:42:54.309Z,99339.28
2023-02-01T14:45:26.130Z,99337.47
2023-02-01T14:47:55.560Z,99339.97
2023-02-01T14:50:38.553Z,99340.44
2023-02-01T14:53:15.620Z,99346.97
2023-02-01T14:55:54.307Z,99355.03
2023-02-01T14:58:44.102Z,99355.50
2023-02-01T15:01:36.699Z,99358.97
2023-02-01T15:04:23.766Z,99361.16
2023-02-01T15:06:59.322Z,99358.06
2023-02-01T15:09:38.616Z,99358.25
2023-02-01T15:12:16.726Z,99358.72
2023-02-01T15:14:53.044Z,99360.94
2023-02-01T15:17:37.202Z,99360.63
2023-02-01T15:20:20.087Z,99362.38
2023-02-01T15:23:20.393Z,99361.31
2023-02-01T15:25:49.550Z,99356.69
2023-02-01T15:28:18.941Z,99358.41
2023-02-01T15:31:03.651Z,99362.16
2023-02-01T15:33:33.840Z,99357.84
2023-02-01T15:36:20.402Z,99360.31
2023-02-01T15:38:48.728Z,99354.94
2023-02-01T15:41:23.521Z,99358.94
2023-02-01T15:43:57.854Z,99362.69
2023-02-01T15:46:26.160Z,99353.75
2023-02-01T15:48:56.563Z,99347.13
2023-02-01T15:51:29.683Z,99354.41
2023-02-01T15:54:02.290Z,99359.22
2023-02-01T15:56:41.610Z,99348.53
2023-02-01T15:59:20.086Z,99349.78
2023-02-01T16:01:49.449Z,99353.50
2023-02-01T16:04:23.126Z,99346.13
2023-02-01T16:07:05.307Z,99347.03
2023-02-01T16:09:40.780Z,99349.25
2023-02-01T16:12:33.012Z,99352.97
2023-02-01T16:15:01.354Z,99354.19
2023-02-01T16:17:29.688Z,99351.91
2023-02-01T16:19:59.144Z,99351.59
2023-02-01T16:22:27.754Z,99352.84
2023-02-01T16:24:56.043Z,99348.25
2023-02-01T16:27:24.315Z,99352.72
2023-02-01T16:29:52.882Z,99356.75
2023-02-01T16:32:23.680Z,99356.47
2023-02-01T16:34:51.985Z,99349.38
2023-02-01T16:37:26.132Z,99351.38
2023-02-01T16:39:54.409Z,99349.06
2023-02-01T16:42:22.703Z,99347.50
2023-02-01T16:44:51.103Z,99349.50
2023-02-01T16:47:25.448Z,99346.44
2023-02-01T16:49:54.134Z,99349.22
2023-02-01T16:52:25.711Z,99346.91
2023-02-01T16:54:54.813Z,99351.69
2023-02-01T16:57:25.307Z,99344.59
2023-02-01T16:59:53.605Z,99348.91
2023-02-01T17:02:23.716Z,99348.91
2023-02-01T17:04:52.143Z,99348.91
2023-02-01T17:07:21.326Z,99349.09
2023-02-01T17:09:49.692Z,99346.31
2023-02-01T17:12:30.342Z,99348.81
2023-02-01T17:14:59.797Z,99352.06
2023-02-01T17:17:39.214Z,99344.66
2023-02-01T17:20:08.650Z,99357.47
2023-02-01T17:22:36.946Z,99357.47
2023-02-01T17:25:07.913Z,99350.88
2023-02-01T17:27:38.058Z,99337.94
2023-02-01T17:30:07.091Z,99341.94
2023-02-01T17:32:35.516Z,99339.31
2023-02-01T17:35:05.926Z,99334.22
2023-02-01T17:37:37.206Z,99341.50
2023-02-01T17:40:06.120Z,99346.75
2023-02-01T17:42:34.435Z,99344.44
2023-02-01T17:45:24.631Z,99334.28
2023-02-01T17:47:53.249Z,99337.22
2023-02-01T17:50:21.654Z,99329.84
2023-02-01T17:52:50.080Z,99330.03
2023-02-01T17:55:24.200Z,99326.94
2023-02-01T17:57:52.951Z,99325.88
2023-02-01T18:00:22.655Z,99333.44
2023-02-01T18:02:51.010Z,99326.75
2023-02-01T18:05:30.175Z,99322.44
2023-02-01T18:07:58.473Z,99322.91
2023-02-01T18:10:26.795Z,99319.84
2023-02-01T18:12:56.057Z,99328.94
2023-02-01T18:15:28.832Z,99321.84
2023-02-01T18:17:57.156Z,99312.47
2023-02-01T18:20:27.300Z,99318.78
2023-02-01T18:22:55.606Z,99316.00
2023-02-01T18:25:25.940Z,99318.00
2023-02-01T18:27:56.445Z,99319.25
2023-02-01T18:30:32.907Z,99318.47
2023-02-01T18:33:01.360Z,99319.72
2023-02-01T18:35:31.884Z,99319.41
2023-02-01T18:38:00.557Z,99322.66
2023-02-01T18:40:35.669Z,99322.34
2023-02-01T18:43:04.106Z,99329.16
2023-02-01T18:45:39.673Z,99320.53
2023-02-01T18:48:09.817Z,99323.28
2023-02-01T18:50:43.028Z,99319.44
2023-02-01T18:53:22.678Z,99322.22
2023-02-01T18:55:51.489Z,99319.16
2023-02-01T18:58:19.964Z,99319.91
2023-02-01T19:00:48.731Z,99310.53
2023-02-01T19:03:17.703Z,99315.75
2023-02-01T19:05:47.685Z,99307.59
2023-02-01T19:08:16.438Z,99298.19
2023-02-01T19:10:44.906Z,99293.59
2023-02-01T19:13:14.427Z,99290.97
2023-02-01T19:15:44.702Z,99286.38
2023-02-01T19:18:13.632Z,99290.84
2023-02-01T19:20:45.907Z,99289.31
2023-02-01T19:23:15.357Z,99282.41
2023-02-01T19:25:48.632Z,99287.19
2023-02-01T19:28:17.678Z,99285.59
2023-02-01T19:30:46.138Z,99284.84
2023-02-01T19:33:14.832Z,99284.53
2023-02-01T19:35:43.164Z,99276.69
2023-02-01T19:38:12.397Z,99274.38
2023-02-01T19:40:40.737Z,99278.84
2023-02-01T19:43:09.036Z,99271.47
2023-02-01T19:45:37.539Z,99269.47
2023-02-01T19:48:08.382Z,99276.25
2023-02-01T19:50:36.748Z,99268.88
2023-02-01T19:53:05.078Z,99266.09
2023-02-01T19:55:33.639Z,99263.00
2023-02-01T19:58:03.316Z,99264.56
2023-02-01T20:00:30.774Z,99267.03
2023-02-01T20:02:59.459Z,99273.03
2023-02-01T20:05:27.853Z,99266.72
2023-02-01T20:07:56.260Z,99264.41
2023-02-01T20:10:24.767Z,99269.19
2023-02-01T20:12:53.138Z,99266.88
2023-02-01T20:15:25.407Z,99266.59
2023-02-01T20:17:54.023Z,99268.59
2023-02-01T20:20:22.458Z,99275.78
2023-02-01T20:22:52.375Z,99277.81
2023-02-01T20:25:20.785Z,99279.81
2023-02-01T20:27:53.622Z,99283.03
2023-02-01T20:30:22.485Z,99277.50
2023-02-01T20:32:51.616Z,99277.03
2023-02-01T20:35:20.803Z,99267.47
2023-02-01T20:37:49.931Z,99267.06
2023-02-01T20:40:18.714Z,99269.34
2023-02-01T20:42:47.163Z,99264.56
2023-02-01T20:45:15.533Z,99257.50
2023-02-01T20:47:44.202Z,99267.81
2023-02-01T20:50:13.166Z,99265.19
2023-02-01T20:52:41.537Z,99271.97
2023-02-01T20:55:10.230Z,99261.34
2023-02-01T20:57:38.605Z,99253.94
2023-02-01T21:00:13.577Z,99252.41
2023-02-01T21:02:41.952Z,99251.66
2023-02-01T21:05:11.265Z,99254.41
2023-02-01T21:07:39.673Z,99253.50
2023-02-01T21:10:08.753Z,99253.50
2023-02-01T21:12:37.331Z,99254.72
2023-02-01T21:15:07.408Z,99267.66
2023-02-01T21:17:35.759Z,99261.63
2023-02-01T21:20:04.171Z,99260.72
2023-02-01T21:22:32.526Z,99256.72
2023-02-01T21:25:02.066Z,99261.34
2023-02-01T21:27:30.574Z,99266.88
2023-02-01T21:29:58.917Z,99257.63
2023-02-01T21:32:27.295Z,99261.66
2023-02-01T21:34:55.598Z,99271.19
2023-02-01T21:37:26.570Z,99267.06
2023-02-01T21:39:54.907Z,99272.72
2023-02-01T21:42:25.428Z,99275.97
2023-02-01T21:44:54.383Z,99279.97
2023-02-01T21:47:26.313Z,99279.66
2023-02-01T21:49:55.827Z,99277.34
2023-02-01T21:52:24.711Z,99285.66
2023-02-01T21:55:00.159Z,99286.91
2023-02-01T21:57:30.344Z,99284.13
2023-02-01T21:59:59.819Z,99287.84
2023-02-01T22:02:28.986Z,99286.59
2023-02-01T22:04:58.672Z,99281.50
2023-02-01T22:07:27.205Z,99290.59
2023-02-01T22:09:55.552Z,99291.03
2023-02-01T22:12:24.160Z,99297.81
2023-02-01T22:14:52.458Z,99301.03
2023-02-01T22:17:20.763Z,99301.97
2023-02-01T22:19:49.066Z,99308.75
2023-02-01T22:22:17.722Z,99313.97
2023-02-01T22:24:46.079Z,99311.22
2023-02-01T22:27:14.833Z,99314.91
2023-02-01T22:29:44.510Z,99321.22
2023-02-01T22:32:14.773Z,99329.06
2023-02-01T22:34:43.333Z,99333.84
2023-02-01T22:37:12.276Z,99343.38
2023-02-01T22:39:41.056Z,99343.03
2023-02-01T22:42:09.577Z,99343.97
2023-02-01T22:44:38.534Z,99344.88
2023-02-01T22:47:07.350Z,99355.66
2023-02-01T22:49:35.630Z,99360.59
2023-02-01T22:52:03.920Z,99365.50
2023-02-01T22:54:32.247Z,99373.97
2023-02-01T22:57:01.199Z,99380.41
2023-02-01T22:59:29.574Z,99385.31
2023-02-01T23:01:57.864Z,99388.53
2023-02-01T23:04:26.239Z,99385.00
2023-02-01T23:06:54.656Z,99387.44
2023-02-01T23:09:29.077Z,99391.44
2023-02-01T23:11:57.403Z,99400.69
2023-02-01T23:14:25.843Z,99406.66
2023-02-01T23:16:54.204Z,99405.59
2023-02-01T23:19:22.765Z,99412.34
2023-02-01T23:21:51.259Z,99417.56
2023-02-01T23:24:19.763Z,99415.25
2023-02-01T23:26:48.207Z,99409.88
2023-02-01T23:29:19.114Z,99424.16
2023-02-01T23:31:47.568Z,99425.41
2023-02-01T23:34:16.131Z,99420.31
2023-02-01T23:36:44.455Z,99422.78
2023-02-01T23:39:12.851Z,99442.16
2023-02-01T23:41:41.134Z,99439.81
2023-02-01T23:44:09.565Z,99433.50
2023-02-01T23:46:48.047Z,99445.34
2023-02-01T23:49:18.656Z,99441.38
2023-02-01T23:51:51.052Z,99455.22
2023-02-01T23:54:19.913Z,99447.34
2023-02-01T23:56:48.374Z,99452.09
2023-02-01T23:59:22.080Z,99453.31
